Time;durP1;ratioP1;P1;durP2;ratioP2;P2;SDS_P1;SDS_P2;PMS_P1;PMS_P2;Temp;Humidity;BMP_temperature;BMP_pressure;BME280_temperature;BME280_humidity;BME280_pressure;Samples;Min_cycle;Max_cycle;Signal;HPM_P1;HPM_P2
2021/04/29 00:01:49;;;;;;;5.78;3.33;;;13.20;84.50;;;;;;5053947;28;20024;-75
2021/04/29 00:04:16;;;;;;;7.30;3.20;;;13.20;84.50;;;;;;5052071;28;20021;-76
2021/04/29 00:06:41;;;;;;;5.35;3.28;;;13.10;84.90;;;;;;5043171;28;20025;-75
2021/04/29 00:09:08;;;;;;;5.57;3.13;;;13.20;85.20;;;;;;5033959;28;20458;-75
2021/04/29 00:11:35;;;;;;;4.20;3.22;;;13.20;85.00;;;;;;5032653;28;20063;-75
2021/04/29 00:14:02;;;;;;;5.53;3.03;;;13.20;84.80;;;;;;5032342;28;20032;-75
2021/04/29 00:16:28;;;;;;;5.72;3.42;;;13.30;84.80;;;;;;5032976;28;20050;-76
2021/04/29 00:18:54;;;;;;;7.18;3.47;;;13.20;84.90;;;;;;5032315;28;20044;-76
2021/04/29 00:21:20;;;;;;;5.47;3.47;;;13.20;85.00;;;;;;5031025;28;20104;-76
2021/04/29 00:23:45;;;;;;;6.68;3.67;;;13.10;85.70;;;;;;5033937;28;20560;-76
2021/04/29 00:26:11;;;;;;;5.68;3.60;;;13.10;85.60;;;;;;5032487;28;20021;-76
2021/04/29 00:28:37;;;;;;;6.78;3.60;;;13.10;86.00;;;;;;5031909;28;20021;-76
2021/04/29 00:31:04;;;;;;;5.30;3.28;;;13.00;86.10;;;;;;5032603;28;20098;-77
2021/04/29 00:33:30;;;;;;;6.93;3.50;;;13.10;86.20;;;;;;5031937;28;20021;-75
2021/04/29 00:35:59;;;;;;;6.28;3.47;;;13.00;86.50;;;;;;5033521;28;20147;-75
2021/04/29 00:38:25;;;;;;;5.68;3.60;;;13.00;86.70;;;;;;5031109;28;20390;-75
2021/04/29 00:40:51;;;;;;;7.43;4.07;;;13.00;86.60;;;;;;5032015;28;20033;-75
2021/04/29 00:43:17;;;;;;;8.98;4.35;;;13.00;86.50;;;;;;5032688;28;20474;-75
2021/04/29 00:45:42;;;;;;;6.82;3.90;;;13.00;86.40;;;;;;5032948;28;20033;-75
2021/04/29 00:48:08;;;;;;;5.38;3.40;;;13.00;86.30;;;;;;5033253;28;20025;-75
2021/04/29 00:50:34;;;;;;;7.13;4.13;;;13.00;86.20;;;;;;5031567;28;20094;-75
2021/04/29 00:53:00;;;;;;;8.40;4.55;;;13.00;86.10;;;;;;5033367;28;20049;-76
2021/04/29 00:55:26;;;;;;;6.63;4.60;;;13.00;86.00;;;;;;5032419;28;20026;-76
2021/04/29 00:57:52;;;;;;;6.38;4.15;;;13.00;86.20;;;;;;5032243;28;20071;-76
2021/04/29 01:00:18;;;;;;;6.80;4.45;;;13.00;86.50;;;;;;5032848;28;20405;-76
2021/04/29 01:02:51;;;;;;;5.63;3.90;;;12.90;86.20;;;;;;5031918;28;20022;-75
2021/04/29 01:05:33;;;;;;;7.03;3.75;;;12.90;86.00;;;;;;5031789;28;20028;-75
2021/04/29 01:08:10;;;;;;;;;;;12.90;85.70;;;;;;5031973;28;20450;-75
2021/04/29 01:10:44;;;;;;;4.82;3.58;;;12.80;86.50;;;;;;5032129;28;19905;-75
2021/04/29 01:13:13;;;;;;;8.43;4.70;;;12.90;86.50;;;;;;5032902;28;20025;-75
2021/04/29 01:15:43;;;;;;;7.00;4.07;;;12.80;86.30;;;;;;5031151;28;20024;-75
2021/04/29 01:18:13;;;;;;;8.60;4.32;;;12.80;86.60;;;;;;5031818;28;20021;-75
2021/04/29 01:20:59;;;;;;;7.32;4.35;;;12.80;87.10;;;;;;5032071;28;20030;-75
2021/04/29 01:23:35;;;;;;;9.80;4.65;;;12.80;86.90;;;;;;5030972;28;20025;-75
2021/04/29 01:26:09;;;;;;;7.05;4.35;;;12.70;87.40;;;;;;5032810;28;20020;-75
2021/04/29 01:28:35;;;;;;;8.98;4.65;;;12.50;88.40;;;;;;5030966;28;20033;-76
2021/04/29 01:31:01;;;;;;;7.15;4.70;;;12.50;88.40;;;;;;5031763;28;20061;-76
2021/04/29 01:33:28;;;;;;;8.27;5.35;;;12.60;88.50;;;;;;5034020;28;20025;-76
2021/04/29 01:35:54;;;;;;;8.60;5.10;;;12.60;88.50;;;;;;5035816;28;20138;-76
2021/04/29 01:38:20;;;;;;;7.32;4.72;;;12.60;88.10;;;;;;5042152;28;20136;-76
2021/04/29 01:40:46;;;;;;;7.07;4.60;;;12.60;87.80;;;;;;5039164;28;20029;-76
2021/04/29 01:43:12;;;;;;;7.07;4.57;;;12.50;88.00;;;;;;5039482;28;20021;-76
2021/04/29 01:45:41;;;;;;;6.50;3.80;;;12.50;88.60;;;;;;5056444;28;20024;-76
2021/04/29 01:48:08;;;;;;;7.47;4.38;;;12.40;88.90;;;;;;5056893;28;20013;-77
2021/04/29 01:50:35;;;;;;;6.38;4.22;;;12.40;88.20;;;;;;5038420;28;20162;-77
2021/04/29 01:53:01;;;;;;;6.78;3.60;;;12.40;88.00;;;;;;5039346;28;20025;-77
2021/04/29 01:55:26;;;;;;;5.22;3.00;;;12.50;87.70;;;;;;5038599;28;20055;-77
2021/04/29 01:57:53;;;;;;;6.00;3.25;;;12.50;86.70;;;;;;5056660;28;20048;-77
2021/04/29 02:00:20;;;;;;;5.32;3.20;;;12.50;86.90;;;;;;5038789;28;20095;-76
2021/04/29 02:02:45;;;;;;;5.40;3.38;;;12.50;87.00;;;;;;5038287;28;20116;-76
2021/04/29 02:05:12;;;;;;;4.75;3.20;;;12.60;86.90;;;;;;5038792;28;20063;-76
2021/04/29 02:07:37;;;;;;;5.60;2.70;;;12.50;86.80;;;;;;5037769;28;20017;-76
2021/04/29 02:10:04;;;;;;;3.88;2.67;;;12.50;86.50;;;;;;5038538;28;20033;-76
2021/04/29 02:12:35;;;;;;;2.90;2.55;;;12.50;86.40;;;;;;5037670;28;20086;-75
2021/04/29 02:15:05;;;;;;;3.10;2.33;;;12.50;86.90;;;;;;5056077;28;20064;-75
2021/04/29 02:17:52;;;;;;;6.90;3.25;;;12.40;87.00;;;;;;5055533;28;20029;-75
2021/04/29 02:20:22;;;;;;;3.70;2.55;;;12.40;87.00;;;;;;5037985;28;20091;-75
2021/04/29 02:22:48;;;;;;;5.60;2.50;;;12.40;87.20;;;;;;5038177;28;20465;-75
2021/04/29 02:25:14;;;;;;;7.82;2.70;;;12.40;87.40;;;;;;5037995;28;20025;-76
2021/04/29 02:27:41;;;;;;;4.80;2.30;;;12.40;87.10;;;;;;5055148;28;20021;-75
2021/04/29 02:30:11;;;;;;;5.70;2.90;;;12.40;86.70;;;;;;5055692;28;20049;-75
2021/04/29 02:32:38;;;;;;;4.68;3.17;;;12.40;87.10;;;;;;5037451;28;20112;-76
2021/04/29 02:35:06;;;;;;;3.95;2.70;;;12.30;87.10;;;;;;5037752;28;20097;-75
2021/04/29 02:37:32;;;;;;;4.60;2.38;;;12.30;87.40;;;;;;5037226;28;20072;-76
2021/04/29 02:39:59;;;;;;;4.63;2.38;;;12.30;86.80;;;;;;5037434;28;20461;-77
2021/04/29 02:42:25;;;;;;;4.47;2.60;;;12.30;87.10;;;;;;5037673;28;20062;-77
2021/04/29 02:44:51;;;;;;;4.95;2.67;;;12.40;87.10;;;;;;5037545;28;20021;-77
2021/04/29 02:47:17;;;;;;;5.10;2.78;;;12.40;87.10;;;;;;5055730;28;20017;-76
2021/04/29 02:49:42;;;;;;;6.35;3.38;;;12.30;86.90;;;;;;5037583;28;20098;-76
2021/04/29 02:52:11;;;;;;;5.07;3.30;;;12.30;87.10;;;;;;5055244;28;20025;-76
2021/04/29 02:54:37;;;;;;;6.60;3.65;;;12.30;87.70;;;;;;5036162;28;20051;-76
2021/04/29 02:57:03;;;;;;;7.25;4.38;;;12.30;88.10;;;;;;5036792;28;20053;-75
2021/04/29 02:59:29;;;;;;;6.25;4.13;;;12.30;88.30;;;;;;5053737;28;20021;-76
2021/04/29 03:01:55;;;;;;;5.82;4.18;;;12.20;88.70;;;;;;5036995;28;20021;-75
2021/04/29 03:04:21;;;;;;;6.45;4.13;;;12.10;89.00;;;;;;5033387;28;20017;-76
2021/04/29 03:06:46;;;;;;;6.97;4.30;;;12.10;89.10;;;;;;5054099;28;20087;-76
2021/04/29 03:09:12;;;;;;;7.55;4.25;;;12.10;89.00;;;;;;5036704;28;20060;-76
2021/04/29 03:11:38;;;;;;;6.60;4.35;;;12.10;89.40;;;;;;5035644;28;20389;-77
2021/04/29 03:14:04;;;;;;;10.02;4.47;;;12.10;89.40;;;;;;5054494;28;20017;-77
2021/04/29 03:16:30;;;;;;;6.63;4.22;;;12.10;89.60;;;;;;5036369;28;20055;-77
2021/04/29 03:18:56;;;;;;;7.18;4.38;;;12.10;89.80;;;;;;5054544;28;20078;-76
2021/04/29 03:21:21;;;;;;;6.45;4.03;;;12.10;90.10;;;;;;5036389;28;20505;-76
2021/04/29 03:23:47;;;;;;;6.88;4.20;;;12.10;89.80;;;;;;5035376;28;20097;-77
2021/04/29 03:26:13;;;;;;;6.45;4.22;;;12.10;89.80;;;;;;5036501;28;20473;-76
2021/04/29 03:28:38;;;;;;;6.68;3.90;;;12.10;89.70;;;;;;5035974;28;20455;-76
2021/04/29 03:31:04;;;;;;;7.93;4.53;;;12.10;89.60;;;;;;5035631;28;20388;-76
2021/04/29 03:33:30;;;;;;;7.72;4.20;;;12.10;89.60;;;;;;5053427;28;20024;-76
2021/04/29 03:35:56;;;;;;;7.72;4.22;;;12.10;89.80;;;;;;5035852;28;20049;-76
2021/04/29 03:38:22;;;;;;;8.73;4.88;;;12.10;90.00;;;;;;5031670;28;20550;-76
2021/04/29 03:40:47;;;;;;;7.03;4.35;;;12.10;89.80;;;;;;5066050;28;20155;-76
2021/04/29 03:43:13;;;;;;;8.25;4.57;;;12.00;90.10;;;;;;5044371;28;20048;-76
2021/04/29 03:45:38;;;;;;;7.70;4.78;;;12.00;90.20;;;;;;5041330;28;20019;-76
2021/04/29 03:48:05;;;;;;;8.93;4.72;;;12.00;90.10;;;;;;5043938;28;20095;-76
2021/04/29 03:50:31;;;;;;;7.15;4.35;;;12.00;90.00;;;;;;5043472;28;20032;-76
2021/04/29 03:52:57;;;;;;;8.77;4.55;;;12.00;89.90;;;;;;5043064;28;20103;-76
2021/04/29 03:55:23;;;;;;;10.15;5.05;;;11.90;90.00;;;;;;5044785;28;20037;-76
2021/04/29 03:57:48;;;;;;;7.93;4.10;;;11.90;90.00;;;;;;5040500;28;20021;-75
2021/04/29 04:00:14;;;;;;;6.95;4.50;;;11.90;89.90;;;;;;5043838;28;20032;-76
2021/04/29 04:02:40;;;;;;;7.63;4.40;;;11.90;90.00;;;;;;5043737;28;20017;-77
2021/04/29 04:05:07;;;;;;;5.45;4.10;;;11.90;89.60;;;;;;5045730;28;20024;-76
2021/04/29 04:07:33;;;;;;;6.32;4.30;;;11.80;89.40;;;;;;5042853;28;20018;-76
2021/04/29 04:09:59;;;;;;;7.97;4.25;;;11.80;89.30;;;;;;5044293;28;20025;-76
2021/04/29 04:12:25;;;;;;;7.47;4.53;;;11.80;89.20;;;;;;5044403;28;20500;-76
2021/04/29 04:14:51;;;;;;;9.55;4.40;;;11.80;88.90;;;;;;5040603;28;20017;-77
2021/04/29 04:17:16;;;;;;;9.32;4.65;;;11.80;89.40;;;;;;5042627;28;20029;-77
2021/04/29 04:19:42;;;;;;;8.80;4.65;;;11.80;89.60;;;;;;5041800;28;20740;-77
2021/04/29 04:22:07;;;;;;;8.05;4.45;;;11.80;90.10;;;;;;5043087;28;20477;-77
2021/04/29 04:24:33;;;;;;;8.02;4.43;;;11.90;89.50;;;;;;5041515;28;20064;-76
2021/04/29 04:26:59;;;;;;;8.98;4.35;;;11.90;89.20;;;;;;5041547;28;20025;-76
2021/04/29 04:29:24;;;;;;;7.78;4.47;;;11.90;89.10;;;;;;5043179;28;20047;-77
2021/04/29 04:31:50;;;;;;;7.88;4.20;;;11.90;89.00;;;;;;5043788;28;20450;-76
2021/04/29 04:34:16;;;;;;;8.25;4.35;;;11.90;88.60;;;;;;5045979;28;20021;-76
2021/04/29 04:36:41;;;;;;;6.95;3.72;;;11.90;88.20;;;;;;5042953;28;20017;-76
2021/04/29 04:39:08;;;;;;;6.95;3.83;;;12.00;88.70;;;;;;5049900;28;20366;-76
2021/04/29 04:41:34;;;;;;;8.50;4.35;;;12.00;87.80;;;;;;5034328;28;20159;-76
2021/04/29 04:44:00;;;;;;;6.93;4.00;;;12.00;87.90;;;;;;5034842;28;20440;-76
2021/04/29 04:46:25;;;;;;;6.28;4.00;;;12.00;87.60;;;;;;5034892;28;20025;-76
2021/04/29 04:48:51;;;;;;;7.25;4.57;;;12.00;87.40;;;;;;5051944;28;20025;-76
2021/04/29 04:51:17;;;;;;;5.75;4.00;;;12.00;87.80;;;;;;5052798;28;20024;-76
2021/04/29 04:53:43;;;;;;;7.43;4.00;;;12.00;87.90;;;;;;5033978;28;20021;-76
2021/04/29 04:56:08;;;;;;;7.75;4.45;;;12.10;88.10;;;;;;5034774;28;20021;-76
2021/04/29 04:58:34;;;;;;;7.30;4.50;;;12.10;88.30;;;;;;5051662;28;20021;-76
2021/04/29 05:01:00;;;;;;;7.50;4.20;;;12.10;88.10;;;;;;5034132;28;20116;-76
2021/04/29 05:03:27;;;;;;;8.38;4.85;;;12.10;88.00;;;;;;5034292;28;20037;-76
2021/04/29 05:05:52;;;;;;;7.35;4.50;;;12.10;88.70;;;;;;5051362;28;20226;-77
2021/04/29 05:08:18;;;;;;;9.45;4.65;;;12.20;88.70;;;;;;5051967;28;20032;-76
2021/04/29 05:10:44;;;;;;;7.80;4.60;;;12.20;88.70;;;;;;5034136;28;20082;-76
2021/04/29 05:13:09;;;;;;;6.65;3.95;;;12.20;88.00;;;;;;5034654;28;20346;-76
2021/04/29 05:15:36;;;;;;;7.78;4.07;;;12.30;87.90;;;;;;5034574;28;20095;-76
2021/04/29 05:18:03;;;;;;;7.18;4.03;;;12.30;87.00;;;;;;5035119;28;20024;-76
2021/04/29 05:20:29;;;;;;;6.15;3.60;;;12.30;86.70;;;;;;5052383;28;20453;-77
2021/04/29 05:22:55;;;;;;;5.50;3.65;;;12.30;86.40;;;;;;5051775;28;20115;-77
2021/04/29 05:25:24;;;;;;;5.97;3.65;;;12.30;86.20;;;;;;5034612;28;20021;-77
2021/04/29 05:27:51;;;;;;;6.35;3.55;;;12.40;86.10;;;;;;5049634;28;20021;-76
2021/04/29 05:30:19;;;;;;;7.72;3.90;;;12.40;85.40;;;;;;5052457;28;20029;-76
2021/04/29 05:32:46;;;;;;;5.55;3.28;;;12.50;85.30;;;;;;5034103;28;20013;-76
2021/04/29 05:35:12;;;;;;;6.60;3.13;;;12.50;85.20;;;;;;5052224;28;20017;-76
2021/04/29 05:37:37;;;;;;;5.57;3.67;;;12.50;85.50;;;;;;5034142;28;20017;-76
2021/04/29 05:40:04;;;;;;;5.78;3.92;;;12.50;85.60;;;;;;5043486;28;20053;-76
2021/04/29 05:42:29;;;;;;;6.03;3.70;;;12.50;85.60;;;;;;5041088;28;20029;-77
2021/04/29 05:44:55;;;;;;;7.32;4.40;;;12.50;85.40;;;;;;5040302;28;20450;-76
2021/04/29 05:47:21;;;;;;;7.07;4.00;;;12.60;85.70;;;;;;5039931;28;20465;-76
2021/04/29 05:49:47;;;;;;;8.60;4.38;;;12.60;85.60;;;;;;5040313;28;20434;-76
2021/04/29 05:52:13;;;;;;;7.75;4.22;;;12.60;85.70;;;;;;5041228;28;20024;-76
2021/04/29 05:54:39;;;;;;;6.35;4.18;;;12.60;85.90;;;;;;5038314;28;20016;-76
2021/04/29 05:57:05;;;;;;;6.22;4.22;;;12.60;86.00;;;;;;5042758;28;20024;-76
2021/04/29 05:59:31;;;;;;;7.47;4.10;;;12.60;86.10;;;;;;5042158;28;20017;-76
2021/04/29 06:01:56;;;;;;;7.93;4.35;;;12.60;85.80;;;;;;5042662;28;20029;-76
2021/04/29 06:04:22;;;;;;;5.97;4.20;;;12.60;86.10;;;;;;5045751;28;20099;-75
2021/04/29 06:06:48;;;;;;;6.47;4.40;;;12.60;86.30;;;;;;5042518;28;20500;-75
2021/04/29 06:09:15;;;;;;;8.52;4.55;;;12.60;86.30;;;;;;5039952;28;20029;-76
2021/04/29 06:11:41;;;;;;;8.70;4.70;;;12.60;86.30;;;;;;5046727;28;20021;-76
2021/04/29 06:14:07;;;;;;;6.20;4.03;;;12.70;87.20;;;;;;5046103;28;20036;-76
2021/04/29 06:16:33;;;;;;;5.75;3.47;;;12.80;86.00;;;;;;5047473;28;20017;-76
2021/04/29 06:18:59;;;;;;;7.28;3.90;;;12.80;84.50;;;;;;5043587;28;20018;-76
2021/04/29 06:21:24;;;;;;;6.38;3.45;;;12.90;83.90;;;;;;5049666;28;20484;-77
2021/04/29 06:23:50;;;;;;;5.00;3.30;;;12.90;83.70;;;;;;5047603;28;20459;-78
2021/04/29 06:26:16;;;;;;;6.13;3.83;;;12.90;83.70;;;;;;5047037;28;20052;-78
2021/04/29 06:28:41;;;;;;;5.97;3.70;;;12.80;84.40;;;;;;5045059;28;20103;-79
2021/04/29 06:31:08;;;;;;;5.22;3.60;;;12.90;83.90;;;;;;5044259;28;20021;-80
2021/04/29 06:33:33;;;;;;;4.55;2.88;;;13.00;83.60;;;;;;5044654;28;20024;-75
2021/04/29 06:35:59;;;;;;;5.28;2.47;;;13.00;82.90;;;;;;5045628;28;20021;-75
2021/04/29 06:38:25;;;;;;;7.15;3.10;;;13.00;81.90;;;;;;5045032;28;20049;-75
2021/04/29 06:40:51;;;;;;;4.60;2.85;;;13.00;82.00;;;;;;5041823;28;20079;-76
2021/04/29 06:43:17;;;;;;;8.20;3.55;;;13.00;81.20;;;;;;5043099;28;20496;-76
2021/04/29 06:45:42;;;;;;;3.90;2.60;;;13.00;81.70;;;;;;5044637;28;20021;-76
2021/04/29 06:48:10;;;;;;;3.63;2.50;;;13.00;81.30;;;;;;5043592;28;20412;-76
2021/04/29 06:50:37;;;;;;;5.65;2.55;;;13.00;81.00;;;;;;5044025;28;20434;-76
2021/04/29 06:53:03;;;;;;;5.05;2.78;;;12.90;81.40;;;;;;5044604;28;20115;-76
2021/04/29 06:55:29;;;;;;;4.95;3.20;;;12.90;81.40;;;;;;5041233;28;20018;-81
2021/04/29 06:57:54;;;;;;;4.32;2.72;;;12.90;81.20;;;;;;5044784;28;20025;-78
2021/04/29 07:00:20;;;;;;;4.53;2.72;;;13.00;81.00;;;;;;5049316;28;20124;-77
2021/04/29 07:02:46;;;;;;;4.88;2.90;;;13.00;80.30;;;;;;5046494;28;20027;-77
2021/04/29 07:05:12;;;;;;;4.65;2.75;;;13.10;81.00;;;;;;5049616;28;20104;-78
2021/04/29 07:07:38;;;;;;;5.18;2.33;;;13.10;80.60;;;;;;5047247;28;20013;-78
2021/04/29 07:10:04;;;;;;;4.40;2.88;;;13.00;81.00;;;;;;5040437;28;20087;-75
2021/04/29 07:12:30;;;;;;;4.32;2.50;;;13.00;80.80;;;;;;5046079;28;20025;-74
2021/04/29 07:14:56;;;;;;;5.13;2.45;;;13.10;80.90;;;;;;5042259;28;20069;-75
2021/04/29 07:17:21;;;;;;;4.18;2.40;;;13.10;80.50;;;;;;5045190;28;20025;-76
2021/04/29 07:19:47;;;;;;;6.05;2.72;;;13.20;80.40;;;;;;5042872;28;20407;-75
2021/04/29 07:22:13;;;;;;;5.35;2.50;;;13.30;80.40;;;;;;5040746;28;20029;-74
2021/04/29 07:24:38;;;;;;;5.32;2.70;;;13.30;79.60;;;;;;5041840;28;20144;-73
2021/04/29 07:27:05;;;;;;;3.00;2.35;;;13.30;79.80;;;;;;5043334;28;20067;-72
2021/04/29 07:29:32;;;;;;;5.18;2.80;;;13.40;79.40;;;;;;5041392;28;20017;-73
2021/04/29 07:31:59;;;;;;;3.85;2.50;;;13.50;79.60;;;;;;5040472;28;20117;-74
2021/04/29 07:34:24;;;;;;;7.10;3.33;;;13.60;79.20;;;;;;5050311;28;20036;-75
2021/04/29 07:36:50;;;;;;;4.40;2.58;;;13.60;79.10;;;;;;5044854;28;20017;-72
2021/04/29 07:39:18;;;;;;;4.43;2.95;;;13.70;78.30;;;;;;5034224;28;20059;-71
2021/04/29 07:41:44;;;;;;;4.97;2.67;;;13.70;77.40;;;;;;5044667;28;20072;-73
2021/04/29 07:44:10;;;;;;;4.80;2.90;;;13.70;77.60;;;;;;5046000;28;20041;-72
2021/04/29 07:46:36;;;;;;;6.88;2.78;;;13.80;77.40;;;;;;5045705;28;20091;-72
2021/04/29 07:49:02;;;;;;;5.78;2.55;;;13.70;77.50;;;;;;5067464;28;20449;-73
2021/04/29 07:51:28;;;;;;;4.00;2.90;;;13.80;77.80;;;;;;5045118;28;20055;-70
2021/04/29 07:53:54;;;;;;;4.50;3.03;;;13.70;77.40;;;;;;5044785;28;20049;-70
2021/04/29 07:56:20;;;;;;;5.30;2.90;;;13.80;77.90;;;;;;5044128;28;20033;-70
2021/04/29 07:58:46;;;;;;;4.57;2.70;;;13.80;77.60;;;;;;5038587;28;20100;-70
2021/04/29 08:01:11;;;;;;;5.28;2.97;;;13.80;77.50;;;;;;5041600;28;20079;-70
2021/04/29 08:03:38;;;;;;;4.88;2.78;;;13.80;77.10;;;;;;5042446;28;20422;-69
2021/04/29 08:06:04;;;;;;;5.47;3.20;;;13.90;77.40;;;;;;5046384;28;20044;-73
2021/04/29 08:08:30;;;;;;;5.93;3.35;;;13.90;76.60;;;;;;5043272;28;20025;-69
2021/04/29 08:10:55;;;;;;;6.75;3.33;;;13.90;76.70;;;;;;5047054;28;20481;-70
2021/04/29 08:13:21;;;;;;;7.35;3.20;;;14.00;76.90;;;;;;5043466;28;20467;-71
2021/04/29 08:15:47;;;;;;;6.07;3.90;;;14.00;76.50;;;;;;5043755;28;20031;-71
2021/04/29 08:18:13;;;;;;;8.65;3.70;;;14.10;75.80;;;;;;5043741;28;20064;-69
2021/04/29 08:20:39;;;;;;;5.13;3.17;;;14.20;75.10;;;;;;5041521;28;20556;-71
2021/04/29 08:23:05;;;;;;;5.63;2.88;;;14.30;75.00;;;;;;5044407;28;20032;-70
2021/04/29 08:25:31;;;;;;;7.70;3.28;;;14.30;75.00;;;;;;5043129;28;20108;-69
2021/04/29 08:27:57;;;;;;;5.38;2.95;;;14.30;74.80;;;;;;5042997;28;20095;-70
2021/04/29 08:30:28;;;;;;;5.82;3.10;;;14.40;75.10;;;;;;5048932;28;20051;-71
2021/04/29 08:32:59;;;;;;;5.72;3.53;;;14.40;75.10;;;;;;5042169;28;20020;-72
2021/04/29 08:35:25;;;;;;;4.80;2.72;;;14.50;73.90;;;;;;5042375;28;20048;-72
2021/04/29 08:37:52;;;;;;;6.15;3.60;;;14.40;73.60;;;;;;5043549;28;20064;-71
2021/04/29 08:40:20;;;;;;;6.43;3.47;;;14.50;73.60;;;;;;5039369;28;20083;-71
2021/04/29 08:42:46;;;;;;;6.57;3.83;;;14.50;72.80;;;;;;5046750;28;20029;-76
2021/04/29 08:45:13;;;;;;;6.55;3.80;;;14.60;73.00;;;;;;5037955;28;20390;-71
2021/04/29 08:47:39;;;;;;;5.50;3.40;;;14.50;72.70;;;;;;5041264;28;20036;-71
2021/04/29 08:50:07;;;;;;;8.05;4.40;;;14.50;73.00;;;;;;5041626;28;20017;-71
2021/04/29 08:52:33;;;;;;;5.53;3.88;;;14.60;71.80;;;;;;5041711;28;20041;-70
2021/04/29 08:54:59;;;;;;;9.73;4.95;;;14.60;71.00;;;;;;5043247;28;20025;-70
2021/04/29 08:57:26;;;;;;;8.23;4.05;;;14.70;70.30;;;;;;5038864;28;20033;-71
2021/04/29 08:59:52;;;;;;;7.90;4.10;;;14.60;70.50;;;;;;5037165;28;20026;-71
2021/04/29 09:02:31;;;;;;;7.90;4.60;;;14.50;71.40;;;;;;5039298;28;20481;-70
2021/04/29 09:05:11;;;;;;;5.43;3.95;;;14.30;71.50;;;;;;5044595;28;20046;-70
2021/04/29 09:07:38;;;;;;;7.40;4.05;;;14.10;72.20;;;;;;5042698;28;20369;-69
2021/04/29 09:10:07;;;;;;;9.88;4.15;;;14.00;72.50;;;;;;5040907;28;20195;-70
2021/04/29 09:12:35;;;;;;;8.93;4.75;;;13.90;74.00;;;;;;5041264;28;20040;-70
2021/04/29 09:15:01;;;;;;;7.07;4.63;;;13.90;75.50;;;;;;5039413;28;20485;-70
2021/04/29 09:17:27;;;;;;;8.40;4.50;;;13.70;78.40;;;;;;5040310;28;20022;-70
2021/04/29 09:19:53;;;;;;;8.43;5.00;;;13.70;79.20;;;;;;5042031;28;20021;-70
2021/04/29 09:22:21;;;;;;;8.95;4.70;;;13.70;80.80;;;;;;5044733;28;20040;-70
2021/04/29 09:24:47;;;;;;;11.00;5.43;;;13.70;80.60;;;;;;5046603;28;20021;-75
2021/04/29 09:27:16;;;;;;;6.28;3.72;;;13.60;79.50;;;;;;5049903;28;20032;-70
2021/04/29 09:29:59;;;;;;;7.38;3.80;;;13.40;77.00;;;;;;5050154;28;20052;-69
2021/04/29 09:32:36;;;;;;;6.60;4.40;;;13.40;77.40;;;;;;5050341;28;20462;-69
2021/04/29 09:35:07;;;;;;;6.57;3.67;;;13.30;77.30;;;;;;5049429;28;20029;-70
2021/04/29 09:37:35;;;;;;;7.65;4.07;;;13.30;78.00;;;;;;5050257;28;20112;-70
2021/04/29 09:40:04;;;;;;;7.93;3.85;;;13.20;78.80;;;;;;5049273;28;20049;-69
2021/04/29 09:42:32;;;;;;;7.10;4.07;;;13.20;79.40;;;;;;5046977;28;20546;-71
2021/04/29 09:44:59;;;;;;;7.13;4.20;;;13.20;79.90;;;;;;5050401;28;20470;-70
2021/04/29 09:47:24;;;;;;;7.60;4.03;;;13.20;80.60;;;;;;5050350;28;20111;-70
2021/04/29 09:49:50;;;;;;;6.25;4.07;;;13.10;80.00;;;;;;5038521;28;20141;-69
2021/04/29 09:52:24;;;;;;;8.43;4.20;;;13.10;78.80;;;;;;5038128;28;20466;-69
2021/04/29 09:54:54;;;;;;;7.60;5.05;;;13.10;79.40;;;;;;5041490;28;20025;-71
2021/04/29 09:57:24;;;;;;;8.18;4.82;;;13.10;79.70;;;;;;5043278;28;20033;-70
2021/04/29 09:59:58;;;;;;;6.95;5.05;;;13.10;79.60;;;;;;5042984;28;20358;-70
2021/04/29 10:02:24;;;;;;;6.95;4.97;;;13.10;79.60;;;;;;5048742;28;20028;-70
2021/04/29 10:04:52;;;;;;;9.43;5.57;;;13.10;79.00;;;;;;5050526;28;20024;-68
2021/04/29 10:07:19;;;;;;;10.48;6.13;;;13.20;79.50;;;;;;5045845;28;20032;-70
2021/04/29 10:09:47;;;;;;;10.65;5.53;;;13.30;78.30;;;;;;5042438;28;20040;-79
2021/04/29 10:12:17;;;;;;;8.93;5.78;;;13.30;78.60;;;;;;5048523;28;20033;-69
2021/04/29 10:14:49;;;;;;;10.18;5.80;;;13.30;79.80;;;;;;5048128;28;20024;-70
2021/04/29 10:17:16;;;;;;;11.93;6.30;;;13.20;78.10;;;;;;5049322;28;20047;-70
2021/04/29 10:19:44;;;;;;;10.38;6.32;;;13.10;79.70;;;;;;5035979;28;20033;-70
2021/04/29 10:22:11;;;;;;;9.02;5.72;;;13.10;80.70;;;;;;5039626;28;20036;-71
2021/04/29 10:24:40;;;;;;;8.00;4.65;;;13.00;80.30;;;;;;5048683;28;20021;-73
2021/04/29 10:27:08;;;;;;;8.00;5.00;;;13.00;79.70;;;;;;5048559;28;20040;-70
2021/04/29 10:29:34;;;;;;;99.28;48.65;;;12.90;80.50;;;;;;5049876;28;20075;-68
2021/04/29 10:32:02;;;;;;;86.72;40.70;;;13.10;80.30;;;;;;5051271;28;20029;-72
2021/04/29 10:34:43;;;;;;;25.08;13.05;;;13.10;80.40;;;;;;5051726;28;20040;-70
2021/04/29 10:37:15;;;;;;;13.27;6.97;;;13.30;79.60;;;;;;5053507;28;20163;-69
2021/04/29 10:39:53;;;;;;;10.82;6.45;;;13.20;78.70;;;;;;5045311;28;20052;-69
2021/04/29 10:42:19;;;;;;;11.27;6.15;;;13.50;77.60;;;;;;5045752;28;20037;-70
2021/04/29 10:44:53;;;;;;;10.07;5.88;;;13.60;77.00;;;;;;5041237;28;20024;-70
2021/04/29 10:47:26;;;;;;;11.82;5.93;;;13.70;76.00;;;;;;5045861;28;20029;-69
2021/04/29 10:49:53;;;;;;;10.10;5.68;;;13.70;76.10;;;;;;5045943;28;20532;-70
2021/04/29 10:52:19;;;;;;;7.32;4.75;;;13.60;75.30;;;;;;5043835;28;20033;-71
2021/04/29 10:54:51;;;;;;;7.82;4.20;;;13.60;75.00;;;;;;5041840;28;20081;-71
2021/04/29 10:57:17;;;;;;;6.80;4.30;;;13.70;75.80;;;;;;5048708;28;20029;-70
2021/04/29 10:59:44;;;;;;;6.85;4.63;;;13.70;74.00;;;;;;5041835;28;20079;-71
2021/04/29 11:02:32;;;;;;;6.00;3.58;;;13.90;75.00;;;;;;5037910;28;20102;-71
2021/04/29 11:04:58;;;;;;;6.25;3.65;;;13.80;74.90;;;;;;5051828;28;20466;-71
2021/04/29 11:07:26;;;;;;;7.20;4.43;;;13.80;75.40;;;;;;5052607;28;20103;-70
2021/04/29 11:09:59;;;;;;;8.43;4.28;;;13.90;76.30;;;;;;5044044;28;20044;-70
2021/04/29 11:12:42;;;;;;;7.45;4.10;;;14.00;76.10;;;;;;5043978;28;20021;-71
2021/04/29 11:15:37;;;;;;;4.72;3.70;;;14.00;76.00;;;;;;5059137;28;20025;-72
2021/04/29 11:18:12;;;;;;;8.52;4.45;;;14.00;74.30;;;;;;5042705;28;20013;-72
2021/04/29 11:20:47;;;;;;;7.57;4.47;;;14.10;74.90;;;;;;5045298;28;20052;-71
2021/04/29 11:23:16;;;;;;;6.50;4.43;;;14.20;76.00;;;;;;5042656;28;20037;-72
2021/04/29 11:25:42;;;;;;;8.00;4.57;;;14.40;73.40;;;;;;5066731;28;20074;-71
2021/04/29 11:28:08;;;;;;;8.43;4.88;;;14.60;72.10;;;;;;5044961;28;20133;-72
2021/04/29 11:30:34;;;;;;;8.85;4.78;;;14.90;74.00;;;;;;5042875;28;20032;-71
2021/04/29 11:33:04;;;;;;;9.55;5.20;;;15.10;71.90;;;;;;5042700;28;20051;-72
2021/04/29 11:35:33;;;;;;;10.20;5.50;;;15.30;70.40;;;;;;5044005;28;20446;-73
2021/04/29 11:38:00;;;;;;;10.02;5.60;;;15.40;70.40;;;;;;5044377;28;20025;-70
2021/04/29 11:40:27;;;;;;;9.18;5.57;;;15.30;69.90;;;;;;5035140;28;20033;-70
2021/04/29 11:42:56;;;;;;;8.18;5.20;;;15.30;70.40;;;;;;5034280;28;20122;-71
2021/04/29 11:45:30;;;;;;;9.20;5.45;;;15.30;69.00;;;;;;5051995;28;20025;-70
2021/04/29 11:47:59;;;;;;;9.30;4.97;;;15.30;68.60;;;;;;5050913;28;20462;-70
2021/04/29 11:50:50;;;;;;;6.45;4.57;;;15.30;68.60;;;;;;5034787;28;20112;-73
2021/04/29 11:53:18;;;;;;;8.50;4.55;;;15.40;66.60;;;;;;5052321;28;20055;-71
2021/04/29 11:55:49;;;;;;;6.38;4.13;;;15.30;68.00;;;;;;5019001;28;20033;-72
2021/04/29 11:58:17;;;;;;;6.68;4.80;;;15.30;67.60;;;;;;5035659;28;20103;-73
2021/04/29 12:00:45;;;;;;;7.75;4.90;;;15.30;67.80;;;;;;5019387;28;20033;-73
2021/04/29 12:03:11;;;;;;;8.38;4.53;;;15.30;66.70;;;;;;5034647;28;20032;-72
2021/04/29 12:05:42;;;;;;;7.82;4.53;;;15.30;68.90;;;;;;5047589;28;20029;-72
2021/04/29 12:08:14;;;;;;;10.73;4.20;;;15.30;67.70;;;;;;5038902;28;20047;-72
2021/04/29 12:10:43;;;;;;;;;;;15.40;65.70;;;;;;5053519;28;20033;-72
2021/04/29 12:13:09;;;;;;;5.55;3.55;;;15.50;62.70;;;;;;5044182;28;19908;-72
2021/04/29 12:15:35;;;;;;;6.60;3.08;;;15.50;64.40;;;;;;5024002;28;20029;-72
2021/04/29 12:18:01;;;;;;;6.05;2.88;;;15.60;63.20;;;;;;5034556;28;20052;-72
2021/04/29 12:20:27;;;;;;;3.67;2.45;;;15.60;59.80;;;;;;5035257;28;20032;-73
2021/04/29 12:22:52;;;;;;;3.08;2.08;;;15.70;60.80;;;;;;5051674;28;20087;-75
2021/04/29 12:25:22;;;;;;;4.68;2.30;;;15.80;59.70;;;;;;5035144;28;20059;-72
2021/04/29 12:27:48;;;;;;;2.97;2.10;;;15.90;57.80;;;;;;5052934;28;20032;-71
2021/04/29 12:30:16;;;;;;;4.28;1.95;;;16.00;58.10;;;;;;5042023;28;20033;-70
2021/04/29 12:32:45;;;;;;;9.73;2.80;;;16.30;58.40;;;;;;5032735;28;20025;-70
2021/04/29 12:35:27;;;;;;;5.07;2.60;;;16.40;55.00;;;;;;5023963;28;20098;-69
2021/04/29 12:37:54;;;;;;;3.03;2.15;;;16.30;54.40;;;;;;5033324;28;20478;-74
2021/04/29 12:40:39;;;;;;;5.40;2.63;;;16.20;55.80;;;;;;5050912;28;20371;-69
2021/04/29 12:43:15;;;;;;;3.28;2.25;;;16.10;54.60;;;;;;5051538;28;20021;-71
2021/04/29 12:45:58;;;;;;;3.92;2.80;;;16.30;55.80;;;;;;5052557;28;20082;-69
2021/04/29 12:48:40;;;;;;;5.32;2.65;;;16.50;55.70;;;;;;5045373;28;20071;-71